Time;durP1;ratioP1;P1;durP2;ratioP2;P2;SDS_P1;SDS_P2;PMS_P1;PMS_P2;Temp;Humidity;BMP_temperature;BMP_pressure;BME280_temperature;BME280_humidity;BME280_pressure;Samples;Min_cycle;Max_cycle;Signal;HPM_P1;HPM_P2
2023/04/07 00:01:25;;;;;;;;;;;;;;;6.16;41.94;92681.09;2038501;70;20125;-81
2023/04/07 00:03:50;;;;;;;;;;;;;;;6.16;41.41;92673.44;2038662;70;20415;-79
2023/04/07 00:06:16;;;;;;;;;;;;;;;6.05;42.77;92685.91;2038863;70;20041;-80
2023/04/07 00:08:42;;;;;;;;;;;;;;;6.00;42.61;92683.38;2038392;70;20163;-76
2023/04/07 00:11:07;;;;;;;;;;;;;;;5.72;43.31;92679.84;2038358;70;20078;-80
2023/04/07 00:13:33;;;;;;;;;;;;;;;5.98;43.21;92686.75;2038727;70;20146;-80
2023/04/07 00:15:58;;;;;;;;;;;;;;;5.49;44.35;92679.41;2038717;70;20067;-82
2023/04/07 00:18:27;;;;;;;;;;;;;;;5.80;43.56;92688.84;2036701;70;20072;-78
2023/04/07 00:20:53;;;;;;;;;;;;;;;5.99;44.05;92688.22;2041066;70;20052;-80
2023/04/07 00:23:18;;;;;;;;;;;;;;;5.80;44.23;92682.53;2040857;69;20059;-81
2023/04/07 00:25:49;;;;;;;;;;;;;;;5.49;44.34;92682.94;2040529;70;20052;-80
2023/04/07 00:28:16;;;;;;;;;;;;;;;5.62;43.58;92681.84;2038933;70;20052;-82
2023/04/07 00:30:42;;;;;;;;;;;;;;;5.83;43.89;92678.59;2038211;70;20071;-81
2023/04/07 00:33:11;;;;;;;;;;;;;;;5.85;43.75;92681.50;2038969;70;20091;-82
2023/04/07 00:35:37;;;;;;;;;;;;;;;6.02;42.97;92672.38;2040737;70;20665;-80
2023/04/07 00:38:03;;;;;;;;;;;;;;;6.03;45.43;92674.56;2035237;70;20060;-82
2023/04/07 00:40:36;;;;;;;;;;;;;;;5.97;45.17;92676.16;2041237;69;20143;-81
2023/04/07 00:43:02;;;;;;;;;;;;;;;6.04;44.01;92675.31;2042204;70;20229;-79
2023/04/07 00:45:39;;;;;;;;;;;;;;;6.05;44.72;92676.78;2042130;70;20600;-82
2023/04/07 00:48:08;;;;;;;;;;;;;;;6.09;45.57;92675.06;2042017;70;20063;-82
2023/04/07 00:50:37;;;;;;;;;;;;;;;5.73;43.13;92677.78;2038817;70;20082;-80
2023/04/07 00:53:10;;;;;;;;;;;;;;;5.76;44.62;92666.19;2039008;70;20048;-81
2023/04/07 00:55:39;;;;;;;;;;;;;;;5.49;45.24;92677.34;2044069;70;20044;-78
2023/04/07 00:58:06;;;;;;;;;;;;;;;5.59;44.20;92669.78;2041327;70;20052;-73
2023/04/07 01:00:37;;;;;;;;;;;;;;;5.76;44.09;92657.81;2039830;70;20047;-81
2023/04/07 01:03:15;;;;;;;;;;;;;;;5.83;43.80;92659.75;2044805;70;20067;-82
2023/04/07 01:05:55;;;;;;;;;;;;;;;6.04;43.91;92662.06;2041215;70;20538;-78
2023/04/07 01:08:26;;;;;;;;;;;;;;;6.07;45.30;92658.13;2038762;70;20056;-82
2023/04/07 01:10:56;;;;;;;;;;;;;;;6.06;45.10;92650.31;2038445;70;20080;-81
2023/04/07 01:13:45;;;;;;;;;;;;;;;6.00;45.26;92653.41;2038706;70;20499;-74
2023/04/07 01:16:36;;;;;;;;;;;;;;;5.99;44.51;92642.78;2041944;70;20112;-82
2023/04/07 01:19:12;;;;;;;;;;;;;;;6.15;43.66;92649.63;2041732;70;20068;-82
2023/04/07 01:21:45;;;;;;;;;;;;;;;6.12;45.15;92647.97;2039105;70;20411;-80
2023/04/07 01:24:33;;;;;;;;;;;;;;;6.06;45.06;92641.94;2042630;70;20079;-80
2023/04/07 01:27:14;;;;;;;;;;;;;;;6.16;44.21;92644.75;2042142;69;20056;-82
2023/04/07 01:29:46;;;;;;;;;;;;;;;5.87;44.68;92645.38;2041893;70;20055;-77
2023/04/07 01:32:14;;;;;;;;;;;;;;;6.07;44.61;92649.72;2041854;70;20114;-81
2023/04/07 01:34:40;;;;;;;;;;;;;;;6.16;44.72;92645.50;2054833;69;20083;-80
2023/04/07 01:37:08;;;;;;;;;;;;;;;6.15;45.55;92652.41;2042077;70;20055;-81
2023/04/07 01:39:37;;;;;;;;;;;;;;;6.05;45.53;92641.19;2054681;69;20126;-81
2023/04/07 01:42:05;;;;;;;;;;;;;;;6.15;45.07;92646.09;2041585;70;20063;-77
2023/04/07 01:44:32;;;;;;;;;;;;;;;6.05;45.78;92644.00;2042473;70;20083;-72
2023/04/07 01:46:58;;;;;;;;;;;;;;;6.12;45.18;92645.19;2041359;70;20047;-81
2023/04/07 01:49:34;;;;;;;;;;;;;;;6.06;46.66;92637.06;2041380;70;20070;-81
2023/04/07 01:52:01;;;;;;;;;;;;;;;6.11;46.13;92638.84;2041999;70;20086;-81
2023/04/07 01:54:27;;;;;;;;;;;;;;;6.14;44.96;92639.00;2039898;70;20139;-80
2023/04/07 01:56:53;;;;;;;;;;;;;;;6.09;45.66;92621.19;2039344;70;20063;-80
2023/04/07 01:59:20;;;;;;;;;;;;;;;6.11;45.87;92624.88;2035795;70;20056;-81
2023/04/07 02:01:50;;;;;;;;;;;;;;;6.20;44.48;92633.88;2038181;70;20063;-80
2023/04/07 02:04:25;;;;;;;;;;;;;;;5.72;46.53;92628.81;2038745;70;20055;-80
2023/04/07 02:07:15;;;;;;;;;;;;;;;5.77;46.44;92627.81;2038883;70;20103;-79
2023/04/07 02:09:56;;;;;;;;;;;;;;;5.98;46.08;92627.34;2041729;70;20705;-82
2023/04/07 02:12:23;;;;;;;;;;;;;;;5.98;45.17;92632.94;2042024;70;20083;-81
2023/04/07 02:15:02;;;;;;;;;;;;;;;6.01;45.86;92631.78;2038430;70;20047;-80
2023/04/07 02:17:33;;;;;;;;;;;;;;;6.17;45.27;92615.47;2041882;70;20052;-80
2023/04/07 02:20:00;;;;;;;;;;;;;;;6.05;45.66;92616.03;2041714;70;20570;-81
2023/04/07 02:22:26;;;;;;;;;;;;;;;6.11;45.58;92622.09;2042946;70;20153;-80
2023/04/07 02:24:53;;;;;;;;;;;;;;;5.97;46.21;92620.28;2044305;70;20161;-73
2023/04/07 02:27:24;;;;;;;;;;;;;;;6.02;47.40;92613.69;2046275;64;20082;-81
2023/04/07 02:29:51;;;;;;;;;;;;;;;5.98;47.62;92625.28;2054682;69;20076;-81
2023/04/07 02:32:17;;;;;;;;;;;;;;;6.09;46.43;92627.53;2058047;69;20043;-77
2023/04/07 02:34:42;;;;;;;;;;;;;;;6.01;46.47;92626.91;2058127;69;20173;-81
2023/04/07 02:37:08;;;;;;;;;;;;;;;5.70;46.96;92625.88;2054466;69;20430;-81
2023/04/07 02:39:33;;;;;;;;;;;;;;;5.80;45.80;92626.66;2055160;70;20133;-76
2023/04/07 02:41:59;;;;;;;;;;;;;;;5.89;45.63;92625.22;2054753;69;20054;-76
2023/04/07 02:44:27;;;;;;;;;;;;;;;5.94;45.64;92635.41;2054740;70;20051;-78
2023/04/07 02:46:53;;;;;;;;;;;;;;;5.93;45.33;92628.34;2054713;70;20100;-75
2023/04/07 02:49:18;;;;;;;;;;;;;;;6.08;44.90;92628.84;2054697;70;20479;-78
2023/04/07 02:51:45;;;;;;;;;;;;;;;5.87;45.13;92625.81;2051260;70;20042;-79
2023/04/07 02:54:11;;;;;;;;;;;;;;;5.80;45.28;92618.28;2050984;70;20077;-78
2023/04/07 02:56:36;;;;;;;;;;;;;;;5.67;45.28;92613.81;2052984;69;20054;-79
2023/04/07 02:59:02;;;;;;;;;;;;;;;5.67;45.97;92615.88;2055257;69;20062;-80
2023/04/07 03:01:30;;;;;;;;;;;;;;;5.84;45.58;92610.19;2054979;69;20057;-74
2023/04/07 03:03:55;;;;;;;;;;;;;;;5.93;45.47;92606.00;2054987;69;20046;-76
2023/04/07 03:06:23;;;;;;;;;;;;;;;5.94;45.50;92593.50;2054548;69;20057;-81
2023/04/07 03:09:11;;;;;;;;;;;;;;;5.95;44.61;92595.69;2054600;69;20061;-81
2023/04/07 03:11:38;;;;;;;;;;;;;;;5.86;45.21;92599.94;2054603;69;20498;-82
2023/04/07 03:14:03;;;;;;;;;;;;;;;5.94;44.68;92596.28;2054584;69;20044;-76
2023/04/07 03:16:30;;;;;;;;;;;;;;;5.88;45.69;92590.97;2057692;69;20054;-78
2023/04/07 03:19:16;;;;;;;;;;;;;;;5.96;44.62;92599.25;2057758;69;20052;-75
2023/04/07 03:21:45;;;;;;;;;;;;;;;5.67;45.18;92599.09;2054520;69;20538;-79
2023/04/07 03:24:10;;;;;;;;;;;;;;;5.80;44.83;92601.50;2054353;69;20172;-72
2023/04/07 03:26:36;;;;;;;;;;;;;;;5.91;45.03;92605.81;2054098;69;20162;-78
2023/04/07 03:29:04;;;;;;;;;;;;;;;5.88;45.54;92598.59;2055087;69;20143;-75
2023/04/07 03:31:30;;;;;;;;;;;;;;;5.80;44.77;92607.09;2058242;69;20058;-79
2023/04/07 03:33:55;;;;;;;;;;;;;;;5.91;44.74;92603.78;2058524;69;20058;-78
2023/04/07 03:36:21;;;;;;;;;;;;;;;5.92;45.38;92596.16;2058361;69;20061;-81
2023/04/07 03:38:47;;;;;;;;;;;;;;;5.89;46.17;92592.44;2058346;69;20488;-77
2023/04/07 03:41:14;;;;;;;;;;;;;;;5.89;46.58;92589.63;2061754;69;20057;-74
2023/04/07 03:43:40;;;;;;;;;;;;;;;5.82;46.51;92593.31;2058375;69;20112;-82
2023/04/07 03:46:07;;;;;;;;;;;;;;;5.85;45.91;92584.47;2058380;69;20053;-81
2023/04/07 03:48:33;;;;;;;;;;;;;;;5.95;44.75;92578.19;2058706;69;20078;-82
2023/04/07 03:51:05;;;;;;;;;;;;;;;5.91;47.01;92587.00;2057896;69;20042;-76
2023/04/07 03:53:31;;;;;;;;;;;;;;;5.87;47.70;92581.09;2061878;69;20500;-75
2023/04/07 03:56:00;;;;;;;;;;;;;;;5.88;46.92;92573.47;2058417;69;20125;-78
2023/04/07 03:58:45;;;;;;;;;;;;;;;5.87;45.88;92575.53;2062454;69;20056;-73
2023/04/07 04:01:17;;;;;;;;;;;;;;;5.82;44.86;92574.47;2060222;69;20133;-78
2023/04/07 04:03:45;;;;;;;;;;;;;;;5.57;46.61;92571.13;2058545;69;20129;-73
2023/04/07 04:06:20;;;;;;;;;;;;;;;5.52;46.46;92574.94;2060464;69;20075;-79
2023/04/07 04:08:46;;;;;;;;;;;;;;;5.63;46.26;92568.81;2058867;69;20057;-78
2023/04/07 04:11:12;;;;;;;;;;;;;;;5.70;46.08;92570.03;2061393;69;20108;-78
2023/04/07 04:13:45;;;;;;;;;;;;;;;5.79;46.05;92569.31;2058756;69;20049;-80
2023/04/07 04:16:11;;;;;;;;;;;;;;;5.86;46.14;92568.44;2058340;69;20513;-81
2023/04/07 04:18:37;;;;;;;;;;;;;;;5.86;47.01;92566.41;2058567;69;20057;-76
2023/04/07 04:21:04;;;;;;;;;;;;;;;5.83;48.00;92569.63;2058357;69;20049;-81
2023/04/07 04:23:31;;;;;;;;;;;;;;;5.80;48.47;92574.31;2058531;69;20201;-82
2023/04/07 04:25:59;;;;;;;;;;;;;;;5.77;48.05;92569.16;2058417;69;20120;-81
2023/04/07 04:28:25;;;;;;;;;;;;;;;5.82;48.13;92577.28;2058324;69;20057;-80
2023/04/07 04:30:53;;;;;;;;;;;;;;;5.83;47.74;92567.56;2056910;69;20058;-82
2023/04/07 04:33:19;;;;;;;;;;;;;;;5.85;48.11;92573.28;2054943;70;20058;-82
2023/04/07 04:35:53;;;;;;;;;;;;;;;5.81;48.75;92561.81;2055250;70;20050;-79
2023/04/07 04:38:20;;;;;;;;;;;;;;;5.84;48.32;92571.81;2051628;70;20491;-80
2023/04/07 04:41:21;;;;;;;;;;;;;;;5.79;47.90;92567.25;2053014;70;20121;-83
2023/04/07 04:43:49;;;;;;;;;;;;;;;5.85;47.34;92562.13;2051639;70;20165;-80
2023/04/07 04:46:19;;;;;;;;;;;;;;;5.91;47.17;92566.69;2051370;70;20058;-82
2023/04/07 04:48:47;;;;;;;;;;;;;;;5.70;47.78;92565.16;2051602;70;20446;-81
2023/04/07 04:51:15;;;;;;;;;;;;;;;5.58;47.75;92569.81;2054492;70;20133;-76
2023/04/07 04:53:40;;;;;;;;;;;;;;;5.56;47.81;92570.41;2051385;70;20550;-81
2023/04/07 04:56:06;;;;;;;;;;;;;;;5.74;47.67;92575.91;2051681;70;20055;-77
2023/04/07 04:58:44;;;;;;;;;;;;;;;5.86;47.28;92566.41;2051471;70;20090;-78
2023/04/07 05:01:12;;;;;;;;;;;;;;;5.78;46.51;92570.63;2051384;70;20401;-80
2023/04/07 05:03:42;;;;;;;;;;;;;;;5.84;46.62;92568.28;2051554;70;20141;-79
2023/04/07 05:06:17;;;;;;;;;;;;;;;5.70;47.25;92576.34;2051487;70;20158;-77
2023/04/07 05:08:44;;;;;;;;;;;;;;;5.90;47.32;92565.94;2051441;70;20523;-75
2023/04/07 05:11:10;;;;;;;;;;;;;;;5.91;48.00;92563.91;2054386;70;20042;-81
2023/04/07 05:13:36;;;;;;;;;;;;;;;5.88;47.98;92568.59;2051498;70;20145;-81
2023/04/07 05:16:03;;;;;;;;;;;;;;;5.78;47.25;92559.47;2051421;70;20540;-80
2023/04/07 05:18:29;;;;;;;;;;;;;;;5.77;47.26;92553.16;2051656;70;20177;-81
2023/04/07 05:20:56;;;;;;;;;;;;;;;5.73;46.95;92563.28;2051661;70;20042;-82
2023/04/07 05:23:24;;;;;;;;;;;;;;;5.84;47.24;92566.25;2051618;70;20058;-81
2023/04/07 05:25:50;;;;;;;;;;;;;;;5.79;49.12;92567.25;2051524;70;20062;-80
2023/04/07 05:28:16;;;;;;;;;;;;;;;5.84;47.99;92566.25;2051332;70;20070;-82
2023/04/07 05:30:42;;;;;;;;;;;;;;;5.84;48.48;92569.03;2051654;70;20046;-80
2023/04/07 05:33:07;;;;;;;;;;;;;;;5.89;48.92;92574.94;2051625;70;20056;-81
2023/04/07 05:35:46;;;;;;;;;;;;;;;5.72;47.43;92575.75;2051457;70;20073;-77
2023/04/07 05:38:12;;;;;;;;;;;;;;;5.57;47.81;92580.25;2051582;70;20058;-79
2023/04/07 05:40:39;;;;;;;;;;;;;;;5.72;47.52;92579.28;2051582;70;20506;-83
2023/04/07 05:43:06;;;;;;;;;;;;;;;5.79;48.66;92574.91;2051511;70;20524;-82
2023/04/07 05:45:32;;;;;;;;;;;;;;;5.87;49.78;92572.72;2048745;70;20082;-81
2023/04/07 05:47:58;;;;;;;;;;;;;;;5.84;48.68;92573.88;2051564;70;20194;-77
2023/04/07 05:50:32;;;;;;;;;;;;;;;5.31;49.93;92573.38;2048905;70;20502;-73
2023/04/07 05:53:00;;;;;;;;;;;;;;;5.28;49.04;92582.19;2051627;70;20053;-78
2023/04/07 05:55:28;;;;;;;;;;;;;;;5.54;48.12;92573.06;2052553;70;20058;-79
2023/04/07 05:57:54;;;;;;;;;;;;;;;5.75;48.21;92564.16;2053539;69;20506;-79
2023/04/07 06:00:21;;;;;;;;;;;;;;;5.77;47.52;92563.56;2052204;69;20100;-77
2023/04/07 06:02:57;;;;;;;;;;;;;;;5.65;47.40;92560.59;2051490;70;20042;-73
2023/04/07 06:05:24;;;;;;;;;;;;;;;5.66;47.39;92558.53;2054669;70;20098;-78
2023/04/07 06:07:53;;;;;;;;;;;;;;;5.91;47.12;92567.44;2048931;70;20085;-76
2023/04/07 06:10:20;;;;;;;;;;;;;;;5.91;48.42;92556.28;2051365;70;20113;-76
2023/04/07 06:12:45;;;;;;;;;;;;;;;5.98;49.03;92551.88;2054773;70;20467;-78
2023/04/07 06:15:11;;;;;;;;;;;;;;;6.05;48.56;92548.25;2048625;70;20077;-75
2023/04/07 06:17:37;;;;;;;;;;;;;;;6.15;47.90;92548.25;2055944;69;20082;-78
2023/04/07 06:20:02;;;;;;;;;;;;;;;6.20;47.65;92555.63;2054257;69;20492;-77
2023/04/07 06:22:31;;;;;;;;;;;;;;;6.16;47.39;92546.94;2052956;69;20094;-82
2023/04/07 06:24:57;;;;;;;;;;;;;;;6.34;46.93;92543.41;2052676;69;20050;-82
2023/04/07 06:27:23;;;;;;;;;;;;;;;6.40;46.58;92542.38;2054980;69;20050;-76
2023/04/07 06:29:48;;;;;;;;;;;;;;;5.85;48.37;92544.63;2056331;69;20149;-77
2023/04/07 06:32:14;;;;;;;;;;;;;;;5.30;51.63;92549.56;2059209;69;20046;-81
2023/04/07 06:34:39;;;;;;;;;;;;;;;5.84;51.42;92554.34;2055291;69;20474;-77
2023/04/07 06:37:05;;;;;;;;;;;;;;;6.21;50.06;92557.09;2058369;69;20058;-73
2023/04/07 06:39:31;;;;;;;;;;;;;;;6.16;48.35;92550.47;2058029;69;20098;-73
2023/04/07 06:41:57;;;;;;;;;;;;;;;6.22;48.42;92555.75;2057040;70;20093;-74
2023/04/07 06:44:22;;;;;;;;;;;;;;;5.95;49.38;92548.19;2056893;70;20490;-73
2023/04/07 06:46:51;;;;;;;;;;;;;;;6.43;47.54;92552.41;2053273;70;20138;-77
2023/04/07 06:49:17;;;;;;;;;;;;;;;6.39;47.21;92550.03;2052042;70;20057;-78
2023/04/07 06:51:43;;;;;;;;;;;;;;;6.78;47.08;92548.00;2055248;70;20050;-74
2023/04/07 06:54:11;;;;;;;;;;;;;;;6.65;47.11;92553.28;2055157;70;20160;-72
2023/04/07 06:56:37;;;;;;;;;;;;;;;6.47;47.61;92556.22;2054831;70;20490;-75
2023/04/07 06:59:03;;;;;;;;;;;;;;;7.08;47.69;92546.59;2051490;70;20107;-80
2023/04/07 07:01:28;;;;;;;;;;;;;;;7.08;45.26;92543.81;2054550;70;20069;-80
2023/04/07 07:03:54;;;;;;;;;;;;;;;7.68;45.48;92536.69;2054248;70;20049;-83
2023/04/07 07:06:19;;;;;;;;;;;;;;;7.92;45.01;92546.75;2054685;70;20046;-79
2023/04/07 07:08:45;;;;;;;;;;;;;;;8.23;44.17;92549.53;2054761;70;20417;-75
2023/04/07 07:11:10;;;;;;;;;;;;;;;8.37;43.55;92535.75;2054500;70;20527;-76
2023/04/07 07:13:38;;;;;;;;;;;;;;;8.46;42.68;92529.34;2051393;70;20051;-78
2023/04/07 07:16:04;;;;;;;;;;;;;;;8.27;41.75;92527.38;2054551;70;20085;-71
2023/04/07 07:18:29;;;;;;;;;;;;;;;8.30;42.43;92525.47;2054498;70;20055;-76
2023/04/07 07:20:55;;;;;;;;;;;;;;;8.39;42.34;92528.22;2054438;70;20457;-73
2023/04/07 07:23:20;;;;;;;;;;;;;;;8.32;42.25;92526.31;2050456;70;20630;-73
2023/04/07 07:25:46;;;;;;;;;;;;;;;8.40;42.24;92523.34;2053697;70;20481;-76
2023/04/07 07:28:11;;;;;;;;;;;;;;;8.09;41.85;92526.91;2053538;70;20092;-78
2023/04/07 07:30:38;;;;;;;;;;;;;;;8.06;42.27;92516.13;2053725;70;20125;-77
2023/04/07 07:33:04;;;;;;;;;;;;;;;8.14;41.55;92517.41;2053774;70;20051;-79
2023/04/07 07:35:31;;;;;;;;;;;;;;;7.72;41.92;92509.69;2053784;70;20050;-75
2023/04/07 07:37:57;;;;;;;;;;;;;;;7.75;42.26;92507.78;2054292;70;20050;-74
2023/04/07 07:40:22;;;;;;;;;;;;;;;8.04;42.02;92510.41;2054416;70;20050;-74
2023/04/07 07:42:47;;;;;;;;;;;;;;;8.12;42.96;92502.53;2054671;70;20135;-73
2023/04/07 07:45:13;;;;;;;;;;;;;;;8.65;43.25;92503.19;2054992;70;20134;-73
2023/04/07 07:47:39;;;;;;;;;;;;;;;8.48;42.32;92500.69;2056106;70;20062;-76
2023/04/07 07:50:05;;;;;;;;;;;;;;;7.98;41.95;92498.81;2051454;70;20061;-77
2023/04/07 07:52:31;;;;;;;;;;;;;;;8.43;41.31;92494.09;2054777;70;20252;-79
2023/04/07 07:54:56;;;;;;;;;;;;;;;7.91;42.00;92497.66;2054835;70;20183;-78
2023/04/07 07:57:22;;;;;;;;;;;;;;;8.45;41.89;92499.09;2054527;70;20493;-77
2023/04/07 07:59:47;;;;;;;;;;;;;;;8.03;42.69;92501.28;2054338;70;20046;-77
2023/04/07 08:02:12;;;;;;;;;;;;;;;8.32;43.65;92503.13;2054493;70;20053;-79
2023/04/07 08:04:38;;;;;;;;;;;;;;;9.10;42.40;92503.97;2051104;70;20074;-78
2023/04/07 08:07:03;;;;;;;;;;;;;;;9.11;41.01;92482.22;2051133;70;20419;-74
2023/04/07 08:09:30;;;;;;;;;;;;;;;9.61;40.71;92497.94;2054671;70;20175;-73
2023/04/07 08:11:56;;;;;;;;;;;;;;;9.79;40.08;92490.59;2054443;70;20062;-76
2023/04/07 08:14:21;;;;;;;;;;;;;;;10.48;37.85;92488.34;2054496;70;20070;-73
2023/04/07 08:16:47;;;;;;;;;;;;;;;11.00;38.23;92486.31;2055120;70;20086;-78
2023/04/07 08:19:12;;;;;;;;;;;;;;;11.09;35.99;92485.44;2054899;70;20059;-77
2023/04/07 08:21:38;;;;;;;;;;;;;;;11.39;37.86;92484.25;2055121;69;20153;-77
2023/04/07 08:24:04;;;;;;;;;;;;;;;12.08;36.29;92475.91;2055124;70;20156;-77
2023/04/07 08:26:30;;;;;;;;;;;;;;;12.24;35.78;92464.75;2054879;70;20051;-78
2023/04/07 08:28:55;;;;;;;;;;;;;;;12.88;35.65;92477.06;2055021;70;20479;-80
2023/04/07 08:31:21;;;;;;;;;;;;;;;12.65;34.87;92463.94;2054944;70;20073;-77
2023/04/07 08:33:46;;;;;;;;;;;;;;;12.23;34.26;92471.00;2055095;70;20120;-79
2023/04/07 08:36:11;;;;;;;;;;;;;;;13.40;34.54;92475.31;2054997;69;20394;-76
2023/04/07 08:38:37;;;;;;;;;;;;;;;14.03;34.28;92464.03;2053449;70;20422;-77
2023/04/07 08:41:10;;;;;;;;;;;;;;;14.34;33.07;92454.78;2055048;70;20050;-80
2023/04/07 08:43:37;;;;;;;;;;;;;;;14.68;31.44;92458.34;2055105;70;20054;-80
2023/04/07 08:46:03;;;;;;;;;;;;;;;14.76;32.01;92457.25;2054953;70;20054;-79
2023/04/07 08:48:33;;;;;;;;;;;;;;;15.27;31.09;92451.50;2055205;70;20425;-76
2023/04/07 08:51:03;;;;;;;;;;;;;;;15.41;31.34;92454.91;2051515;70;20054;-75
2023/04/07 08:53:34;;;;;;;;;;;;;;;15.80;31.36;92456.38;2055882;70;20126;-76
2023/04/07 08:56:01;;;;;;;;;;;;;;;13.57;32.23;92445.69;2060083;70;20027;-76
2023/04/07 08:58:27;;;;;;;;;;;;;;;14.51;30.41;92442.03;2056407;69;20057;-82
2023/04/07 09:00:52;;;;;;;;;;;;;;;15.14;30.83;92436.13;2055044;70;20072;-80
2023/04/07 09:03:19;;;;;;;;;;;;;;;14.52;29.77;92432.16;2055011;70;20043;-78
2023/04/07 09:05:45;;;;;;;;;;;;;;;16.00;30.52;92428.03;2054959;70;20058;-73
2023/04/07 09:08:11;;;;;;;;;;;;;;;14.66;30.87;92429.94;2054930;70;20627;-75
2023/04/07 09:10:36;;;;;;;;;;;;;;;15.89;29.64;92423.34;2054908;70;20150;-81
2023/04/07 09:13:02;;;;;;;;;;;;;;;15.91;30.93;92417.78;2055016;70;20072;-81
2023/04/07 09:15:31;;;;;;;;;;;;;;;16.69;28.21;92409.84;2054977;70;20054;-80
2023/04/07 09:17:56;;;;;;;;;;;;;;;16.56;28.85;92411.53;2055050;70;20456;-79
2023/04/07 09:20:22;;;;;;;;;;;;;;;15.79;29.47;92403.84;2054848;70;20081;-81
2023/04/07 09:22:49;;;;;;;;;;;;;;;16.14;29.14;92411.50;2054897;70;20170;-80
2023/04/07 09:25:22;;;;;;;;;;;;;;;16.80;28.39;92410.91;2054601;70;20053;-81
2023/04/07 09:27:58;;;;;;;;;;;;;;;16.94;28.24;92405.69;2054746;70;20087;-81
2023/04/07 09:30:23;;;;;;;;;;;;;;;17.88;27.57;92400.81;2054884;69;20082;-80
2023/04/07 09:32:49;;;;;;;;;;;;;;;15.71;28.10;92392.19;2054885;70;20590;-81
2023/04/07 09:35:14;;;;;;;;;;;;;;;16.80;27.99;92396.72;2055007;70;20050;-79
2023/04/07 09:37:41;;;;;;;;;;;;;;;18.25;26.54;92391.16;2055477;70;20140;-79
2023/04/07 09:40:07;;;;;;;;;;;;;;;17.64;27.61;92389.41;2055058;70;20054;-81
2023/04/07 09:42:34;;;;;;;;;;;;;;;18.29;27.31;92390.56;2054803;70;20055;-81
2023/04/07 09:45:00;;;;;;;;;;;;;;;18.17;27.04;92385.22;2054892;70;20112;-80
2023/04/07 09:47:28;;;;;;;;;;;;;;;17.23;26.94;92373.94;2054928;70;20544;-75
2023/04/07 09:49:54;;;;;;;;;;;;;;;18.31;26.54;92373.50;2054835;70;20066;-76
2023/04/07 09:52:40;;;;;;;;;;;;;;;15.61;28.79;92372.66;2051593;70;20077;-76
2023/04/07 09:55:06;;;;;;;;;;;;;;;17.15;28.07;92375.81;2052541;70;20047;-74
2023/04/07 09:57:31;;;;;;;;;;;;;;;18.01;26.84;92359.88;2054822;70;20447;-74
2023/04/07 09:59:58;;;;;;;;;;;;;;;16.78;26.97;92368.97;2054648;70;20047;-75
2023/04/07 10:02:25;;;;;;;;;;;;;;;17.77;25.98;92353.47;2054765;70;20042;-76
2023/04/07 10:04:51;;;;;;;;;;;;;;;16.09;28.10;92352.41;2054733;70;20046;-75
2023/04/07 10:07:16;;;;;;;;;;;;;;;17.47;27.31;92351.19;2054833;70;20505;-75
2023/04/07 10:09:41;;;;;;;;;;;;;;;18.93;26.12;92342.34;2057011;69;20537;-80
2023/04/07 10:12:07;;;;;;;;;;;;;;;18.03;25.56;92340.00;2055708;69;20459;-81
2023/04/07 10:14:34;;;;;;;;;;;;;;;16.74;26.84;92337.56;2054768;70;20058;-78
2023/04/07 10:17:00;;;;;;;;;;;;;;;16.79;27.32;92335.56;2054852;70;20490;-81
2023/04/07 10:19:30;;;;;;;;;;;;;;;16.82;27.30;92334.97;2054717;69;20080;-81
2023/04/07 10:21:56;;;;;;;;;;;;;;;17.98;26.83;92338.44;2058243;69;20160;-80
2023/04/07 10:24:22;;;;;;;;;;;;;;;18.87;25.49;92332.91;2058071;69;20757;-78
2023/04/07 10:26:50;;;;;;;;;;;;;;;18.43;25.17;92325.38;2057986;69;20588;-74
2023/04/07 10:29:16;;;;;;;;;;;;;;;18.48;26.25;92326.94;2058809;69;20133;-80
2023/04/07 10:31:43;;;;;;;;;;;;;;;21.15;24.35;92323.19;2058318;69;20073;-76
2023/04/07 10:34:08;;;;;;;;;;;;;;;18.77;24.93;92317.00;2054840;69;20212;-77
2023/04/07 10:36:34;;;;;;;;;;;;;;;21.71;23.72;92319.00;2051972;69;20141;-80
2023/04/07 10:39:05;;;;;;;;;;;;;;;23.97;21.43;92314.69;2054846;69;20053;-76
2023/04/07 10:41:35;;;;;;;;;;;;;;;23.41;21.14;92307.84;2058293;69;20138;-76
2023/04/07 10:44:01;;;;;;;;;;;;;;;19.05;24.07;92304.81;2060338;69;20014;-73
2023/04/07 10:46:47;;;;;;;;;;;;;;;18.52;25.17;92295.69;2061726;69;20042;-80
2023/04/07 10:49:13;;;;;;;;;;;;;;;19.53;24.98;92290.19;2059162;69;20169;-76
2023/04/07 10:51:39;;;;;;;;;;;;;;;17.96;25.47;92294.94;2058680;69;20511;-79
2023/04/07 10:54:25;;;;;;;;;;;;;;;18.66;25.70;92291.75;2060196;69;20507;-80
2023/04/07 10:57:03;;;;;;;;;;;;;;;21.22;22.60;92295.41;2058726;69;20049;-80
2023/04/07 10:59:30;;;;;;;;;;;;;;;23.81;21.70;92290.16;2058306;69;20139;-80
2023/04/07 11:02:11;;;;;;;;;;;;;;;23.13;21.08;92288.28;2058223;69;20057;-78
2023/04/07 11:04:37;;;;;;;;;;;;;;;21.55;21.67;92280.16;2058365;69;20116;-81
2023/04/07 11:07:02;;;;;;;;;;;;;;;24.69;20.97;92281.13;2058194;69;20505;-80
2023/04/07 11:09:28;;;;;;;;;;;;;;;22.76;21.02;92281.50;2058230;69;20490;-81
2023/04/07 11:11:53;;;;;;;;;;;;;;;20.62;22.19;92267.25;2058092;69;20126;-82
2023/04/07 11:14:26;;;;;;;;;;;;;;;25.30;20.23;92273.28;2057840;69;20160;-78
2023/04/07 11:16:51;;;;;;;;;;;;;;;25.79;18.20;92273.19;2055129;69;20167;-78
2023/04/07 11:19:17;;;;;;;;;;;;;;;24.42;19.27;92263.84;2058433;69;20475;-74
2023/04/07 11:21:42;;;;;;;;;;;;;;;24.66;19.09;92262.44;2057217;69;20073;-75
2023/04/07 11:24:07;;;;;;;;;;;;;;;23.02;20.49;92270.25;2059585;69;20048;-78
2023/04/07 11:26:40;;;;;;;;;;;;;;;22.26;21.04;92251.63;2058313;69;20568;-74
2023/04/07 11:29:06;;;;;;;;;;;;;;;24.35;19.90;92248.69;2052724;69;20054;-76
2023/04/07 11:31:32;;;;;;;;;;;;;;;28.48;17.45;92264.69;2057504;69;20114;-75
2023/04/07 11:33:59;;;;;;;;;;;;;;;32.76;14.61;92263.78;2054009;69;20149;-79
2023/04/07 11:36:25;;;;;;;;;;;;;;;32.60;13.39;92267.16;2056978;69;20108;-77
2023/04/07 11:38:51;;;;;;;;;;;;;;;34.15;13.93;92259.38;2056802;69;20061;-81
2023/04/07 11:41:17;;;;;;;;;;;;;;;32.66;13.43;92260.44;2054574;69;20073;-73
2023/04/07 11:43:43;;;;;;;;;;;;;;;28.94;14.90;92250.31;2054730;69;20130;-79
2023/04/07 11:46:15;;;;;;;;;;;;;;;30.24;14.36;92256.06;2056255;69;20046;-77
2023/04/07 11:48:42;;;;;;;;;;;;;;;29.47;14.85;92240.78;2054428;70;20243;-77
2023/04/07 11:51:24;;;;;;;;;;;;;;;33.93;12.95;92246.22;2054948;69;20140;-78
2023/04/07 11:53:54;;;;;;;;;;;;;;;29.17;14.61;92242.00;2055152;69;20097;-74
2023/04/07 11:56:21;;;;;;;;;;;;;;;30.77;14.14;92244.09;2054876;70;20117;-78
2023/04/07 11:58:47;;;;;;;;;;;;;;;29.13;14.09;92236.97;2054914;70;20053;-75
2023/04/07 12:01:13;;;;;;;;;;;;;;;30.77;14.02;92238.28;2055028;69;20070;-76
2023/04/07 12:03:53;;;;;;;;;;;;;;;29.85;14.21;92233.59;2055356;70;20042;-75
2023/04/07 12:06:33;;;;;;;;;;;;;;;30.97;13.72;92236.38;2055287;70;20429;-77
2023/04/07 12:09:02;;;;;;;;;;;;;;;25.93;16.50;92222.69;2057198;70;20549;-73
2023/04/07 12:11:28;;;;;;;;;;;;;;;25.58;18.13;92219.94;2059627;70;20495;-73
2023/04/07 12:13:53;;;;;;;;;;;;;;;23.82;18.38;92207.53;2053601;70;20145;-76
2023/04/07 12:16:19;;;;;;;;;;;;;;;24.46;18.16;92209.16;2055749;70;20058;-79
2023/04/07 12:18:45;;;;;;;;;;;;;;;29.11;17.03;92223.25;2055858;70;20138;-81
2023/04/07 12:21:12;;;;;;;;;;;;;;;29.00;14.57;92222.00;2055271;70;20144;-81
2023/04/07 12:23:37;;;;;;;;;;;;;;;31.35;13.89;92235.50;2055471;70;20062;-80
2023/04/07 12:26:02;;;;;;;;;;;;;;;27.00;16.05;92221.38;2055104;70;20117;-79
2023/04/07 12:28:30;;;;;;;;;;;;;;;28.06;15.34;92229.03;2055572;70;20403;-80
2023/04/07 12:30:55;;;;;;;;;;;;;;;27.54;14.80;92236.81;2054993;70;20528;-81
2023/04/07 12:33:20;;;;;;;;;;;;;;;24.01;17.57;92223.44;2055103;70;20101;-82
2023/04/07 12:35:46;;;;;;;;;;;;;;;23.37;17.35;92229.56;2056625;69;20043;-73
2023/04/07 12:38:12;;;;;;;;;;;;;;;22.24;18.69;92220.06;2059648;70;20072;-81
2023/04/07 12:40:37;;;;;;;;;;;;;;;24.45;17.02;92221.41;2056074;70;20498;-80
2023/04/07 12:43:03;;;;;;;;;;;;;;;21.98;19.30;92225.50;2051858;70;20418;-74
2023/04/07 12:45:30;;;;;;;;;;;;;;;20.19;21.36;92210.06;2055232;70;20124;-79
2023/04/07 12:47:55;;;;;;;;;;;;;;;21.37;20.91;92213.31;2055047;70;20054;-82
2023/04/07 12:50:21;;;;;;;;;;;;;;;20.98;20.60;92219.22;2053495;70;20058;-80
2023/04/07 12:52:47;;;;;;;;;;;;;;;20.89;21.60;92206.22;2054719;70;20042;-80
2023/04/07 12:55:13;;;;;;;;;;;;;;;19.85;22.67;92206.59;2055311;70;20076;-83
2023/04/07 12:57:38;;;;;;;;;;;;;;;18.67;23.43;92202.69;2055016;70;20047;-82